Omemee, Canada
Current Conditions -  °F | °C
As of 9:00 AM on Saturday 25 Oct 2014 (Local Time) from CYPQ Reporting Station
Haze Haze  
Wind Chill: 46°   Ceiling: Unl
Heat Index: 48°   Visibility: 4mi
Dew Point: 46°   Wind: 6mph
Humidity: 93%   Direction: 190°S
Pressure: 29.75"   Gusts: NA
Location:  44.3°N, 78.56°W
Report Text: CYPQ 251300Z AUTO 19005KT 4SM BR CLR 09/08 A2975 RMK SLP078
Loading
Personal Weather Stations






























Interactive Weather Map
Tropical Storm Tracking
New forecast layout! Learn more

10-Day Weather Forecast

Advertisements
Track Severe Weather on mobile